createdAt,value
2019-06-01T00:01:48.659Z,16.95
2019-06-01T00:04:18.084Z,16.90
2019-06-01T00:06:47.285Z,16.87
2019-06-01T00:09:16.543Z,16.83
2019-06-01T00:11:47.381Z,16.81
2019-06-01T00:14:16.966Z,16.75
2019-06-01T00:16:46.213Z,16.80
2019-06-01T00:19:15.730Z,16.76
2019-06-01T00:21:45.450Z,16.74
2019-06-01T00:27:04.187Z,16.61
2019-06-01T00:29:33.388Z,16.63
2019-06-01T00:32:02.616Z,16.58
2019-06-01T00:34:31.804Z,16.58
2019-06-01T00:37:01.060Z,16.53
2019-06-01T00:39:30.255Z,16.35
2019-06-01T00:41:59.507Z,16.17
2019-06-01T00:44:29.066Z,16.13
2019-06-01T00:46:58.681Z,16.07
2019-06-01T00:49:27.870Z,16.01
2019-06-01T00:51:57.110Z,15.97
2019-06-01T00:54:26.680Z,15.98
2019-06-01T00:56:55.929Z,16.04
2019-06-01T00:59:25.515Z,16.08
2019-06-01T01:01:54.775Z,16.09
2019-06-01T01:04:23.976Z,16.16
2019-06-01T01:06:54.695Z,16.17
2019-06-01T01:09:24.449Z,16.10
2019-06-01T01:11:53.638Z,16.15
2019-06-01T01:14:22.878Z,16.18
2019-06-01T01:16:54.024Z,15.99
2019-06-01T01:19:23.430Z,15.94
2019-06-01T01:21:54.045Z,15.80
2019-06-01T01:24:23.771Z,15.77
2019-06-01T01:27:05.332Z,15.71
2019-06-01T01:29:34.600Z,15.70
2019-06-01T01:32:03.787Z,15.74
2019-06-01T01:34:32.980Z,15.81
2019-06-01T01:37:02.226Z,15.77
2019-06-01T01:39:31.534Z,15.71
2019-06-01T01:42:00.779Z,15.66
2019-06-01T01:44:29.964Z,15.68
2019-06-01T01:46:59.209Z,15.74
2019-06-01T01:49:28.805Z,15.71
2019-06-01T01:51:58.039Z,15.68
2019-06-01T01:54:27.506Z,15.69
2019-06-01T01:56:58.200Z,15.62
2019-06-01T01:59:28.401Z,15.51
2019-06-01T02:01:58.639Z,15.47
2019-06-01T02:04:28.951Z,15.53
2019-06-01T02:06:58.457Z,15.44
2019-06-01T02:09:29.237Z,15.38
2019-06-01T02:11:59.548Z,15.23
2019-06-01T02:14:29.778Z,15.17
2019-06-01T02:17:00.239Z,15.06
2019-06-01T02:19:29.938Z,15.03
2019-06-01T02:21:59.120Z,15.06
2019-06-01T02:24:28.485Z,15.10
2019-06-01T02:26:59.220Z,15.14
2019-06-01T02:29:28.687Z,15.09
2019-06-01T02:31:59.147Z,15.08
2019-06-01T02:34:28.838Z,15.06
2019-06-01T02:36:58.403Z,14.99
2019-06-01T02:39:28.985Z,15.08
2019-06-01T02:41:59.103Z,15.07
2019-06-01T02:44:29.132Z,15.15
2019-06-01T02:46:59.555Z,15.19
2019-06-01T02:52:18.182Z,15.22
2019-06-01T02:54:47.424Z,15.20
2019-06-01T02:57:16.612Z,15.18
2019-06-01T02:59:45.789Z,15.17
2019-06-01T03:02:34.110Z,15.17
2019-06-01T03:05:42.735Z,15.22
2019-06-01T03:08:51.607Z,15.29
2019-06-01T03:12:02.072Z,15.28
2019-06-01T03:15:11.034Z,15.30
2019-06-01T03:18:19.729Z,15.30
2019-06-01T03:21:28.623Z,15.33
2019-06-01T03:24:37.202Z,15.31
2019-06-01T03:27:06.674Z,15.22
2019-06-01T03:30:15.828Z,15.13
2019-06-01T03:32:46.230Z,15.06
2019-06-01T03:35:15.398Z,14.87
2019-06-01T03:37:44.683Z,14.81
2019-06-01T03:40:23.435Z,14.74
2019-06-01T03:42:44.841Z,14.73
2019-06-01T03:45:14.404Z,14.80
2019-06-01T03:47:44.236Z,14.81
2019-06-01T03:50:13.415Z,14.91
2019-06-01T03:52:43.036Z,14.94
2019-06-01T03:55:12.226Z,14.99
2019-06-01T03:57:41.467Z,15.01
2019-06-01T04:00:11.954Z,15.00
2019-06-01T04:02:41.724Z,15.02
2019-06-01T04:05:50.297Z,14.98
2019-06-01T04:08:19.923Z,15.06
2019-06-01T04:10:49.110Z,15.12
2019-06-01T04:13:18.371Z,15.19
2019-06-01T04:15:47.558Z,15.25
2019-06-01T04:18:16.736Z,15.16
2019-06-01T04:20:45.970Z,15.08
2019-06-01T04:23:15.807Z,15.07
2019-06-01T04:25:45.084Z,15.06
2019-06-01T04:28:14.272Z,15.06
2019-06-01T04:30:43.518Z,15.20
2019-06-01T04:33:13.294Z,15.27
2019-06-01T04:35:43.965Z,15.34
2019-06-01T04:38:13.433Z,15.41
2019-06-01T04:40:44.117Z,15.41
2019-06-01T04:43:14.193Z,15.48
2019-06-01T04:45:45.434Z,15.56
2019-06-01T04:48:14.768Z,15.65
2019-06-01T04:50:44.034Z,15.74
2019-06-01T04:53:13.534Z,15.77
2019-06-01T04:55:42.772Z,15.84
2019-06-01T04:58:13.087Z,15.85
2019-06-01T05:00:42.920Z,15.95
2019-06-01T05:03:13.492Z,16.05
2019-06-01T05:05:43.068Z,16.12
2019-06-01T05:08:13.871Z,16.27
2019-06-01T05:10:43.236Z,16.39
2019-06-01T05:13:13.516Z,16.45
2019-06-01T05:15:43.741Z,16.57
2019-06-01T05:18:14.229Z,16.64
2019-06-01T05:20:44.347Z,16.72
2019-06-01T05:23:14.829Z,16.78
2019-06-01T05:25:45.328Z,16.88
2019-06-01T05:28:15.289Z,17.00
2019-06-01T05:30:45.495Z,17.16
2019-06-01T05:33:31.117Z,17.33
2019-06-01T05:35:45.661Z,17.50
2019-06-01T05:38:33.934Z,17.73
2019-06-01T05:41:03.183Z,17.73
2019-06-01T05:43:32.370Z,17.87
2019-06-01T05:46:20.555Z,17.95
2019-06-01T05:48:49.739Z,18.10
2019-06-01T05:51:38.054Z,18.44
2019-06-01T05:54:07.236Z,18.44
2019-06-01T05:56:36.480Z,18.53
2019-06-01T05:59:05.766Z,18.60
2019-06-01T06:01:35.707Z,18.64
2019-06-01T06:04:04.902Z,18.76
2019-06-01T06:06:34.164Z,18.92
2019-06-01T06:09:03.623Z,19.03
2019-06-01T06:11:32.806Z,19.18
2019-06-01T06:14:02.088Z,19.35
2019-06-01T06:16:31.277Z,19.55
2019-06-01T06:19:00.529Z,19.71
2019-06-01T06:21:30.311Z,19.86
2019-06-01T06:23:59.921Z,20.02
2019-06-01T06:26:29.160Z,20.24
2019-06-01T06:28:58.773Z,20.40
2019-06-01T06:31:28.009Z,20.47
2019-06-01T06:33:57.297Z,20.35
2019-06-01T06:36:26.499Z,20.32
2019-06-01T06:38:56.019Z,20.39
2019-06-01T06:41:25.255Z,20.36
2019-06-01T06:43:54.733Z,20.36
2019-06-01T06:46:24.883Z,20.62
2019-06-01T06:48:54.868Z,20.77
2019-06-01T06:51:25.499Z,20.71
2019-06-01T06:53:55.395Z,20.69
2019-06-01T06:56:24.630Z,20.94
2019-06-01T06:58:54.525Z,21.32
2019-06-01T07:01:24.856Z,21.60
2019-06-01T07:03:55.057Z,21.87
2019-06-01T07:06:25.405Z,22.12
2019-06-01T07:08:55.540Z,22.28
2019-06-01T07:11:25.368Z,22.49
2019-06-01T07:13:56.005Z,22.68
2019-06-01T07:16:25.559Z,22.85
2019-06-01T07:18:56.201Z,23.00
2019-06-01T07:21:25.872Z,23.11
2019-06-01T07:26:37.144Z,23.26
2019-06-01T07:29:06.382Z,23.37
2019-06-01T07:31:35.556Z,23.45
2019-06-01T07:34:05.099Z,23.50
2019-06-01T07:36:34.291Z,23.52
2019-06-01T07:41:43.291Z,23.56
2019-06-01T07:44:12.558Z,23.55
2019-06-01T07:46:42.044Z,23.55
2019-06-01T07:49:11.310Z,23.59
2019-06-01T07:51:40.835Z,23.68
2019-06-01T07:54:10.147Z,23.80
2019-06-01T07:56:39.390Z,23.64
2019-06-01T07:59:08.566Z,23.55
2019-06-01T08:01:37.896Z,23.65
2019-06-01T08:04:07.075Z,23.64
2019-06-01T08:06:36.321Z,23.68
2019-06-01T08:09:45.646Z,23.79
2019-06-01T08:15:10.732Z,24.02
2019-06-01T08:17:40.091Z,24.15
2019-06-01T08:20:09.375Z,24.23
2019-06-01T08:22:38.943Z,24.28
2019-06-01T08:25:08.329Z,24.27
2019-06-01T08:27:37.628Z,24.33
2019-06-01T08:33:15.614Z,24.34
2019-06-01T08:35:44.806Z,24.30
2019-06-01T08:41:08.796Z,24.49
2019-06-01T08:43:38.249Z,24.43
2019-06-01T08:46:07.737Z,24.45
2019-06-01T08:48:36.978Z,24.48
2019-06-01T08:51:06.546Z,24.51
2019-06-01T08:53:35.778Z,24.41
2019-06-01T08:56:04.963Z,24.29
2019-06-01T08:58:34.693Z,24.32
2019-06-01T09:01:05.486Z,24.45
2019-06-01T09:03:53.660Z,24.49
2019-06-01T09:06:23.169Z,24.54
2019-06-01T09:08:52.405Z,24.53
2019-06-01T09:11:21.975Z,24.27
2019-06-01T09:13:52.367Z,24.24
2019-06-01T09:16:22.174Z,24.27
2019-06-01T09:18:51.544Z,24.30
2019-06-01T09:21:39.807Z,24.22
2019-06-01T09:24:09.080Z,24.29
2019-06-01T09:26:38.319Z,24.42
2019-06-01T09:29:07.496Z,24.46
2019-06-01T09:31:36.851Z,24.50
2019-06-01T09:34:06.091Z,24.58
2019-06-01T09:36:43.454Z,24.59
2019-06-01T09:39:12.635Z,24.55
2019-06-01T09:41:41.868Z,24.55
2019-06-01T09:44:11.078Z,24.51
2019-06-01T09:46:40.305Z,24.53
2019-06-01T09:49:09.483Z,24.55
2019-06-01T09:51:38.722Z,24.63
2019-06-01T09:54:07.899Z,24.70
2019-06-01T09:56:38.229Z,24.74
2019-06-01T10:01:56.271Z,24.42
2019-06-01T10:04:25.459Z,24.37
2019-06-01T10:06:54.983Z,24.50
2019-06-01T10:09:24.160Z,24.60
2019-06-01T10:11:53.386Z,24.62
2019-06-01T10:14:22.557Z,24.65
2019-06-01T10:16:51.791Z,24.66
2019-06-01T10:19:21.292Z,24.79
2019-06-01T10:21:50.525Z,24.88
2019-06-01T10:27:07.995Z,24.98
2019-06-01T10:29:39.736Z,25.02
2019-06-01T10:32:08.443Z,25.08
2019-06-01T10:34:37.807Z,25.15
2019-06-01T10:37:07.333Z,25.18
2019-06-01T10:39:37.235Z,25.23
2019-06-01T10:42:07.766Z,25.17
2019-06-01T10:44:41.740Z,25.11
2019-06-01T10:47:07.943Z,25.12
2019-06-01T10:49:38.023Z,25.14
2019-06-01T10:52:08.099Z,25.17
2019-06-01T10:54:38.309Z,25.19
2019-06-01T10:57:08.231Z,25.13
2019-06-01T10:59:38.448Z,25.13
2019-06-01T11:02:08.738Z,25.10
2019-06-01T11:04:38.964Z,25.16
2019-06-01T11:07:09.286Z,25.22
2019-06-01T11:09:38.979Z,25.27
2019-06-01T11:12:09.423Z,25.27
2019-06-01T11:14:39.071Z,25.25
2019-06-01T11:17:09.600Z,24.94
2019-06-01T11:19:39.490Z,24.70
2019-06-01T11:22:10.091Z,24.66
2019-06-01T11:24:39.591Z,24.77
2019-06-01T11:27:08.849Z,24.82
2019-06-01T11:29:46.037Z,24.86
2019-06-01T11:32:09.314Z,24.97
2019-06-01T11:34:38.580Z,25.06
2019-06-01T11:37:07.825Z,25.11
2019-06-01T11:39:38.411Z,25.16
2019-06-01T11:42:08.064Z,25.14
2019-06-01T11:44:38.585Z,25.15
2019-06-01T11:47:08.215Z,25.13
2019-06-01T11:49:38.663Z,25.10
2019-06-01T11:52:08.664Z,25.14
2019-06-01T11:54:39.095Z,25.16
2019-06-01T11:57:27.751Z,25.19
2019-06-01T12:00:15.922Z,25.24
2019-06-01T12:02:45.989Z,25.21
2019-06-01T12:05:16.195Z,25.12
2019-06-01T12:07:46.062Z,25.09
2019-06-01T12:13:11.971Z,25.12
2019-06-01T12:15:42.247Z,25.18
2019-06-01T12:18:12.120Z,25.20
2019-06-01T12:20:41.362Z,25.16
2019-06-01T12:26:00.469Z,25.16
2019-06-01T12:28:29.646Z,25.07
2019-06-01T12:30:58.822Z,25.05
2019-06-01T12:33:28.441Z,25.03
2019-06-01T12:35:57.615Z,25.13
2019-06-01T12:38:26.846Z,25.19
2019-06-01T12:40:56.418Z,25.23
2019-06-01T12:43:26.433Z,25.30
2019-06-01T12:46:06.765Z,25.42
2019-06-01T12:48:26.576Z,25.45
2019-06-01T12:50:55.762Z,25.45
2019-06-01T12:53:24.995Z,25.49
2019-06-01T12:55:54.182Z,25.54
2019-06-01T12:58:23.774Z,25.65
2019-06-01T13:00:52.968Z,25.72
2019-06-01T13:03:22.704Z,25.80
2019-06-01T13:05:51.978Z,25.89
2019-06-01T13:08:21.194Z,25.99
2019-06-01T13:10:50.369Z,26.09
2019-06-01T13:13:19.608Z,26.18
2019-06-01T13:15:49.383Z,26.32
2019-06-01T13:18:20.521Z,26.46
2019-06-01T13:21:08.695Z,27.32
2019-06-01T13:23:37.927Z,28.59
2019-06-01T13:26:07.155Z,29.25
2019-06-01T13:28:38.377Z,28.80
2019-06-01T13:31:08.015Z,28.07
2019-06-01T13:33:37.627Z,27.52
2019-06-01T13:36:07.128Z,27.26
2019-06-01T13:38:36.315Z,27.04
2019-06-01T13:41:05.554Z,26.95
2019-06-01T13:43:34.737Z,26.64
2019-06-01T13:46:06.382Z,26.62
2019-06-01T13:48:34.903Z,26.69
2019-06-01T13:51:04.133Z,26.78
2019-06-01T13:53:33.320Z,26.88
2019-06-01T13:56:02.555Z,26.91
2019-06-01T13:58:32.055Z,26.97
2019-06-01T14:01:01.288Z,27.09
2019-06-01T14:03:30.466Z,27.13
2019-06-01T14:06:01.060Z,27.24
2019-06-01T14:08:31.302Z,27.26
2019-06-01T14:11:00.484Z,27.28
2019-06-01T14:13:29.721Z,27.35
2019-06-01T14:15:58.898Z,27.48
2019-06-01T14:18:28.130Z,27.65
2019-06-01T14:20:57.665Z,27.75
2019-06-01T14:23:26.896Z,27.97
2019-06-01T14:25:56.363Z,28.11
2019-06-01T14:28:27.442Z,28.06
2019-06-01T14:30:57.370Z,28.04
2019-06-01T14:33:26.941Z,28.04
2019-06-01T14:35:56.642Z,28.05
2019-06-01T14:38:27.019Z,28.12
2019-06-01T14:40:57.400Z,28.30
2019-06-01T14:43:27.870Z,28.45
2019-06-01T14:45:58.069Z,28.60
2019-06-01T14:48:28.380Z,28.67
2019-06-01T14:50:57.995Z,28.82
2019-06-01T14:53:27.174Z,29.01
2019-06-01T14:55:57.955Z,29.22
2019-06-01T14:58:27.618Z,29.31
2019-06-01T15:00:58.414Z,29.48
2019-06-01T15:03:28.062Z,29.38
2019-06-01T15:05:58.526Z,29.12
2019-06-01T15:08:28.199Z,28.97
2019-06-01T15:10:58.792Z,28.97
2019-06-01T15:13:28.348Z,29.11
2019-06-01T15:15:57.703Z,29.32
2019-06-01T15:18:26.850Z,29.71
2019-06-01T15:20:56.470Z,30.07
2019-06-01T15:26:13.918Z,30.60
2019-06-01T15:28:43.148Z,30.91
2019-06-01T15:31:12.639Z,31.03
2019-06-01T15:33:41.816Z,31.13
2019-06-01T15:36:11.056Z,31.14
2019-06-01T15:38:59.922Z,31.13
2019-06-01T15:41:30.610Z,31.18
2019-06-01T15:43:59.792Z,31.48
2019-06-01T15:46:29.033Z,31.75
2019-06-01T15:48:58.228Z,31.87
2019-06-01T15:51:27.459Z,32.10
2019-06-01T15:53:57.043Z,32.11
2019-06-01T15:56:26.288Z,32.35
2019-06-01T15:58:58.174Z,32.32
2019-06-01T16:01:26.735Z,32.49
2019-06-01T16:03:57.260Z,32.78
2019-06-01T16:06:26.876Z,32.83
2019-06-01T16:08:57.282Z,32.89
2019-06-01T16:11:27.307Z,32.89
2019-06-01T16:13:57.556Z,32.93
2019-06-01T16:16:27.764Z,33.05
2019-06-01T16:19:02.163Z,33.26
2019-06-01T16:21:28.222Z,34.16
2019-06-01T16:23:58.301Z,35.50
2019-06-01T16:26:29.057Z,36.69
2019-06-01T16:28:58.983Z,37.70
2019-06-01T16:31:28.278Z,38.71
2019-06-01T16:33:58.580Z,39.73
2019-06-01T16:36:28.951Z,40.88
2019-06-01T16:39:03.025Z,41.34
2019-06-01T16:41:29.441Z,41.84
2019-06-01T16:43:59.519Z,41.93
2019-06-01T16:46:30.217Z,42.04
2019-06-01T16:48:59.835Z,42.24
2019-06-01T16:52:08.407Z,42.51
2019-06-01T16:54:37.655Z,42.41
2019-06-01T16:57:25.823Z,40.85
2019-06-01T16:59:56.261Z,40.56
2019-06-01T17:02:25.918Z,40.70
2019-06-01T17:04:56.411Z,40.22
2019-06-01T17:07:26.092Z,40.07
2019-06-01T17:09:56.555Z,39.36
2019-06-01T17:12:26.599Z,38.56
2019-06-01T17:14:56.793Z,39.22
2019-06-01T17:17:27.114Z,39.71
2019-06-01T17:19:56.952Z,40.07
2019-06-01T17:22:27.251Z,40.00
2019-06-01T17:24:57.605Z,39.16
2019-06-01T17:27:27.779Z,37.47
2019-06-01T17:29:58.063Z,35.85
2019-06-01T17:32:27.917Z,34.80
2019-06-01T17:34:58.508Z,34.75
2019-06-01T17:37:28.060Z,33.59
2019-06-01T17:39:57.315Z,32.46
2019-06-01T17:42:26.498Z,31.52
2019-06-01T17:44:55.677Z,30.72
2019-06-01T17:47:27.363Z,30.10
2019-06-01T17:49:55.816Z,29.52
2019-06-01T17:52:25.647Z,29.10
2019-06-01T17:54:54.826Z,28.76
2019-06-01T17:57:24.449Z,28.47
2019-06-01T17:59:53.634Z,28.16
2019-06-01T18:02:22.886Z,27.94
2019-06-01T18:04:52.447Z,27.73
2019-06-01T18:07:23.577Z,27.45
2019-06-01T18:09:52.660Z,27.31
2019-06-01T18:12:23.616Z,27.13
2019-06-01T18:14:52.791Z,27.00
2019-06-01T18:17:22.044Z,26.88
2019-06-01T18:19:51.222Z,26.67
2019-06-01T18:22:20.828Z,26.58
2019-06-01T18:24:50.044Z,26.51
2019-06-01T18:27:19.342Z,26.42
2019-06-01T18:29:49.696Z,26.31
2019-06-01T18:32:19.898Z,26.24
2019-06-01T18:34:49.078Z,26.23
2019-06-01T18:37:18.313Z,26.14
2019-06-01T18:39:48.247Z,26.08
2019-06-01T18:45:13.849Z,25.83
2019-06-01T18:47:44.228Z,25.80
2019-06-01T18:53:21.991Z,25.61
2019-06-01T18:55:51.488Z,25.52
2019-06-01T18:58:20.735Z,25.48
2019-06-01T19:00:50.275Z,25.41
2019-06-01T19:03:19.518Z,25.31
2019-06-01T19:05:48.685Z,25.21
2019-06-01T19:08:17.924Z,25.14
2019-06-01T19:10:48.274Z,25.10
2019-06-01T19:13:18.086Z,24.94
2019-06-01T19:15:47.306Z,24.83
2019-06-01T19:18:17.170Z,24.76
2019-06-01T19:20:47.849Z,24.67
2019-06-01T19:23:21.930Z,24.69
2019-06-01T19:25:48.414Z,24.62
2019-06-01T19:28:17.949Z,24.57
2019-06-01T19:30:48.740Z,24.50
2019-06-01T19:33:19.499Z,24.38
2019-06-01T19:36:28.246Z,24.26
2019-06-01T19:39:37.084Z,24.15
2019-06-01T19:42:07.148Z,24.08
2019-06-01T19:44:37.234Z,24.01
2019-06-01T19:47:07.684Z,23.93
2019-06-01T19:49:37.695Z,23.89
2019-06-01T19:52:06.990Z,23.80
2019-06-01T19:54:36.133Z,23.71
2019-06-01T19:57:05.496Z,23.65
2019-06-01T19:59:35.062Z,23.61
2019-06-01T20:02:04.729Z,23.55
2019-06-01T20:04:33.942Z,23.47
2019-06-01T20:07:03.135Z,23.43
2019-06-01T20:09:32.438Z,23.38
2019-06-01T20:12:04.870Z,23.37
2019-06-01T20:14:32.600Z,23.37
2019-06-01T20:17:01.797Z,23.41
2019-06-01T20:19:31.036Z,23.37
2019-06-01T20:22:00.216Z,23.32
2019-06-01T20:24:29.468Z,23.24
2019-06-01T20:26:58.704Z,23.19
2019-06-01T20:29:27.935Z,23.20
2019-06-01T20:31:57.493Z,23.17
2019-06-01T20:34:27.146Z,23.13
2019-06-01T20:36:56.642Z,23.10
2019-06-01T20:39:25.876Z,23.11
2019-06-01T20:41:55.347Z,23.06
2019-06-01T20:44:24.582Z,23.07
2019-06-01T20:46:53.769Z,23.04
2019-06-01T20:49:23.015Z,23.03
2019-06-01T20:51:52.187Z,23.02
2019-06-01T20:54:21.383Z,23.02
2019-06-01T20:56:51.064Z,22.99
2019-06-01T20:59:22.719Z,22.95
2019-06-01T21:01:51.594Z,22.85
2019-06-01T21:04:22.328Z,22.81
2019-06-01T21:06:52.518Z,22.74
2019-06-01T21:09:22.062Z,22.75
2019-06-01T21:11:52.683Z,22.77
2019-06-01T21:14:21.871Z,22.78
2019-06-01T21:16:51.347Z,22.76
2019-06-01T21:19:22.447Z,22.69
2019-06-01T21:21:53.399Z,22.62
2019-06-01T21:24:23.090Z,22.54
2019-06-01T21:26:53.905Z,22.50
2019-06-01T21:29:23.149Z,22.49
2019-06-01T21:31:52.341Z,22.45
2019-06-01T21:34:22.610Z,22.42
2019-06-01T21:36:52.842Z,22.36
2019-06-01T21:39:22.093Z,22.34
2019-06-01T21:41:51.281Z,22.30
2019-06-01T21:44:21.599Z,22.32
2019-06-01T21:46:51.800Z,22.28
2019-06-01T21:49:22.157Z,22.30
2019-06-01T21:51:53.163Z,22.27
2019-06-01T21:54:24.627Z,22.20
2019-06-01T21:56:54.428Z,22.12
2019-06-01T21:59:24.809Z,22.03
2019-06-01T22:01:54.709Z,21.92
2019-06-01T22:04:25.585Z,21.88
2019-06-01T22:06:54.865Z,21.89
2019-06-01T22:09:25.258Z,21.91
2019-06-01T22:11:55.679Z,21.90
2019-06-01T22:14:26.039Z,21.85
2019-06-01T22:16:55.826Z,21.83
2019-06-01T22:19:25.920Z,21.79
2019-06-01T22:21:56.409Z,21.76
2019-06-01T22:24:25.947Z,21.69
2019-06-01T22:26:56.989Z,21.68
2019-06-01T22:29:26.481Z,21.61
2019-06-01T22:31:57.122Z,21.57
2019-06-01T22:34:27.000Z,21.54
2019-06-01T22:36:57.684Z,21.56
2019-06-01T22:39:27.039Z,21.54
2019-06-01T22:41:56.310Z,21.52
2019-06-01T22:44:26.206Z,21.49
2019-06-01T22:46:56.408Z,21.43
2019-06-01T22:49:26.890Z,21.34
2019-06-01T22:51:56.427Z,21.38
2019-06-01T22:54:25.674Z,21.34
2019-06-01T22:57:13.928Z,21.32
2019-06-01T22:59:43.160Z,21.27
2019-06-01T23:02:12.346Z,21.26
2019-06-01T23:07:17.622Z,21.24
2019-06-01T23:12:21.431Z,21.23
2019-06-01T23:17:26.083Z,21.12
2019-06-01T23:19:56.756Z,21.04
2019-06-01T23:22:26.274Z,21.03
2019-06-01T23:24:55.455Z,21.07
2019-06-01T23:27:25.966Z,21.03
2019-06-01T23:29:55.739Z,20.98
2019-06-01T23:32:26.338Z,20.91
2019-06-01T23:34:55.926Z,20.89
2019-06-01T23:37:26.501Z,20.89
2019-06-01T23:39:56.778Z,20.89
2019-06-01T23:42:26.781Z,20.83
2019-06-01T23:44:56.932Z,20.78
2019-06-01T23:47:27.385Z,20.76
2019-06-01T23:49:57.123Z,20.71
2019-06-01T23:52:27.535Z,20.65
2019-06-01T23:54:57.638Z,20.61
2019-06-01T23:57:27.962Z,20.53
2019-06-01T23:59:58.089Z,20.56
